createdAt,value
2023-11-01T00:00:06.886Z,2.50
2023-11-01T00:02:08.575Z,2.90
2023-11-01T00:04:10.095Z,2.50
2023-11-01T00:06:11.690Z,3.58
2023-11-01T00:08:13.207Z,2.85
2023-11-01T00:10:14.731Z,2.60
2023-11-01T00:12:16.180Z,2.85
2023-11-01T00:14:17.758Z,2.90
2023-11-01T00:16:19.407Z,2.60
2023-11-01T00:18:20.886Z,2.97
2023-11-01T00:20:22.438Z,2.40
2023-11-01T00:22:23.967Z,2.75
2023-11-01T00:24:25.506Z,2.65
2023-11-01T00:26:27.088Z,2.80
2023-11-01T00:28:28.590Z,2.92
2023-11-01T00:30:29.993Z,2.75
2023-11-01T00:32:31.853Z,3.05
2023-11-01T00:34:33.349Z,2.80
2023-11-01T00:36:35.024Z,2.50
2023-11-01T00:38:36.985Z,2.70
2023-11-01T00:40:38.535Z,2.40
2023-11-01T00:42:40.134Z,3.00
2023-11-01T00:44:41.890Z,2.88
2023-11-01T00:46:43.662Z,2.55
2023-11-01T00:48:45.087Z,2.85
2023-11-01T00:50:46.953Z,2.53
2023-11-01T00:52:48.398Z,2.40
2023-11-01T00:54:49.842Z,2.80
2023-11-01T00:56:51.271Z,2.65
2023-11-01T00:58:52.704Z,2.65
2023-11-01T01:00:54.137Z,2.50
2023-11-01T01:02:55.906Z,2.50
2023-11-01T01:04:57.414Z,2.55
2023-11-01T01:06:58.895Z,2.20
2023-11-01T01:09:00.307Z,2.70
2023-11-01T01:11:01.817Z,2.05
2023-11-01T01:13:03.236Z,1.55
2023-11-01T01:15:05.000Z,2.00
2023-11-01T01:17:06.455Z,2.15
2023-11-01T01:19:08.421Z,2.00
2023-11-01T01:21:09.893Z,2.83
2023-11-01T01:23:11.338Z,2.00
2023-11-01T01:25:12.833Z,2.00
2023-11-01T01:27:14.568Z,2.60
2023-11-01T01:29:16.055Z,2.33
2023-11-01T01:31:17.509Z,2.42
2023-11-01T01:33:19.092Z,2.17
2023-11-01T01:35:20.819Z,2.80
2023-11-01T01:37:22.246Z,2.65
2023-11-01T01:39:23.728Z,2.28
2023-11-01T01:41:25.199Z,1.75
2023-11-01T01:43:26.760Z,2.67
2023-11-01T01:45:28.269Z,2.67
2023-11-01T01:47:30.521Z,1.95
2023-11-01T01:49:36.833Z,2.03
2023-11-01T01:51:41.541Z,1.70
2023-11-01T01:53:47.259Z,1.70
2023-11-01T01:55:49.422Z,1.73
2023-11-01T01:57:50.934Z,1.65
2023-11-01T01:59:53.768Z,1.80
2023-11-01T02:01:57.015Z,2.10
2023-11-01T02:03:58.996Z,1.73
2023-11-01T02:06:02.703Z,1.88
2023-11-01T02:08:04.402Z,1.70
2023-11-01T02:10:06.798Z,2.03
2023-11-01T02:12:08.711Z,1.58
2023-11-01T02:14:10.289Z,1.40
2023-11-01T02:16:11.785Z,1.70
2023-11-01T02:18:14.997Z,1.98
2023-11-01T02:20:16.508Z,1.75
2023-11-01T02:22:18.011Z,1.80
2023-11-01T02:24:19.423Z,1.70
2023-11-01T02:26:21.090Z,1.63
2023-11-01T02:28:23.022Z,1.77
2023-11-01T02:30:25.910Z,1.70
2023-11-01T02:32:29.418Z,1.50
2023-11-01T02:34:30.931Z,1.90
2023-11-01T02:36:32.343Z,1.73
2023-11-01T02:38:33.804Z,1.80
2023-11-01T02:40:36.209Z,1.88
2023-11-01T02:42:52.396Z,1.73
2023-11-01T02:44:53.802Z,1.70
2023-11-01T02:46:55.262Z,1.70
2023-11-01T02:48:56.682Z,1.92
2023-11-01T02:50:58.165Z,1.98
2023-11-01T02:52:59.571Z,2.42
2023-11-01T02:55:03.084Z,1.92
2023-11-01T02:57:04.526Z,1.83
2023-11-01T02:59:05.979Z,1.60
2023-11-01T03:01:08.162Z,1.80
2023-11-01T03:03:09.720Z,1.65
2023-11-01T03:05:11.248Z,1.63
2023-11-01T03:07:12.835Z,1.40
2023-11-01T03:09:14.321Z,1.60
2023-11-01T03:11:15.829Z,1.60
2023-11-01T03:13:17.306Z,1.65
2023-11-01T03:15:18.886Z,1.45
2023-11-01T03:17:20.821Z,1.60
2023-11-01T03:19:22.529Z,1.20
2023-11-01T03:21:24.270Z,1.13
2023-11-01T03:23:25.737Z,1.15
2023-11-01T03:25:27.191Z,1.20
2023-11-01T03:27:28.706Z,1.50
2023-11-01T03:29:30.316Z,1.55
2023-11-01T03:31:31.829Z,1.63
2023-11-01T03:33:35.646Z,1.95
2023-11-01T03:35:37.153Z,1.05
2023-11-01T03:37:38.616Z,1.75
2023-11-01T03:39:40.080Z,1.20
2023-11-01T03:41:42.489Z,1.38
2023-11-01T03:43:44.573Z,1.45
2023-11-01T03:45:46.279Z,1.15
2023-11-01T03:47:48.078Z,1.00
2023-11-01T03:49:49.638Z,1.20
2023-11-01T03:51:51.124Z,1.60
2023-11-01T03:53:52.618Z,1.13
2023-11-01T03:55:54.103Z,0.70
2023-11-01T03:57:55.545Z,1.55
2023-11-01T03:59:57.657Z,1.38
2023-11-01T04:01:59.794Z,1.45
2023-11-01T04:04:01.307Z,1.20
2023-11-01T04:06:02.970Z,1.48
2023-11-01T04:08:04.551Z,1.20
2023-11-01T04:10:06.391Z,1.30
2023-11-01T04:12:08.053Z,1.27
2023-11-01T04:14:09.768Z,1.38
2023-11-01T04:16:11.279Z,1.20
2023-11-01T04:18:12.779Z,1.10
2023-11-01T04:20:14.480Z,1.27
2023-11-01T04:22:15.942Z,1.38
2023-11-01T04:24:17.443Z,1.27
2023-11-01T04:26:19.850Z,1.52
2023-11-01T04:28:21.560Z,1.13
2023-11-01T04:30:23.896Z,1.05
2023-11-01T04:32:29.616Z,1.25
2023-11-01T04:34:31.328Z,1.10
2023-11-01T04:36:36.548Z,1.20
2023-11-01T04:38:39.326Z,0.90
2023-11-01T04:40:41.004Z,0.90
2023-11-01T04:42:43.966Z,1.00
2023-11-01T04:44:46.032Z,1.00
2023-11-01T04:46:47.486Z,0.77
2023-11-01T04:48:49.145Z,1.00
2023-11-01T04:50:50.734Z,0.98
2023-11-01T04:52:52.600Z,1.10
2023-11-01T04:54:54.008Z,0.95
2023-11-01T04:56:55.466Z,1.00
2023-11-01T04:58:56.874Z,1.10
2023-11-01T05:00:58.367Z,0.95
2023-11-01T05:02:59.948Z,1.00
2023-11-01T05:05:01.414Z,0.90
2023-11-01T05:07:02.830Z,0.90
2023-11-01T05:09:06.025Z,0.98
2023-11-01T05:11:07.467Z,1.10
2023-11-01T05:13:08.897Z,0.63
2023-11-01T05:15:10.771Z,0.80
2023-11-01T05:17:12.593Z,0.80
2023-11-01T05:19:14.342Z,0.93
2023-11-01T05:21:15.867Z,1.00
2023-11-01T05:23:17.401Z,0.90
2023-11-01T05:25:18.914Z,0.68
2023-11-01T05:27:21.170Z,1.23
2023-11-01T05:29:22.700Z,0.70
2023-11-01T05:31:24.549Z,1.00
2023-11-01T05:33:26.134Z,0.60
2023-11-01T05:35:27.660Z,0.60
2023-11-01T05:37:29.101Z,0.85
2023-11-01T05:39:31.236Z,0.60
2023-11-01T05:41:32.913Z,0.60
2023-11-01T05:43:34.383Z,0.70
2023-11-01T05:45:35.818Z,0.75
2023-11-01T05:47:37.497Z,0.80
2023-11-01T05:49:38.931Z,0.65
2023-11-01T05:51:40.364Z,0.60
2023-11-01T05:53:41.790Z,0.40
2023-11-01T05:57:51.581Z,0.63
2023-11-01T05:59:54.617Z,0.63
2023-11-01T06:01:56.082Z,0.60
2023-11-01T06:03:57.863Z,0.68
2023-11-01T06:05:59.954Z,0.88
2023-11-01T06:08:02.479Z,0.60
2023-11-01T06:10:04.786Z,0.57
2023-11-01T06:12:06.965Z,0.55
2023-11-01T06:14:08.475Z,0.75
2023-11-01T06:16:09.895Z,0.70
2023-11-01T06:18:11.614Z,0.63
2023-11-01T06:20:13.255Z,1.30
2023-11-01T06:22:14.697Z,0.93
2023-11-01T06:24:16.101Z,0.80
2023-11-01T06:26:17.882Z,0.80
2023-11-01T06:28:21.081Z,0.90
2023-11-01T06:30:22.530Z,0.80
2023-11-01T06:32:24.068Z,0.80
2023-11-01T06:34:25.596Z,0.65
2023-11-01T06:36:27.049Z,1.13
2023-11-01T06:38:28.498Z,0.80
2023-11-01T06:40:30.750Z,0.95
2023-11-01T06:42:32.609Z,1.02
2023-11-01T06:44:34.305Z,0.77
2023-11-01T06:46:35.754Z,0.90
2023-11-01T06:48:37.426Z,0.95
2023-11-01T06:50:41.406Z,1.27
2023-11-01T06:52:46.033Z,0.93
2023-11-01T06:54:47.481Z,0.80
2023-11-01T06:56:49.046Z,0.90
2023-11-01T06:58:50.767Z,1.10
2023-11-01T07:00:52.234Z,0.90
2023-11-01T07:02:53.853Z,0.93
2023-11-01T07:04:55.381Z,1.35
2023-11-01T07:06:57.319Z,1.20
2023-11-01T07:08:58.770Z,1.10
2023-11-01T07:11:00.813Z,0.90
2023-11-01T07:13:02.297Z,1.20
2023-11-01T07:15:08.518Z,1.08
2023-11-01T07:17:09.955Z,0.77
2023-11-01T07:19:11.395Z,1.10
2023-11-01T07:21:12.826Z,1.30
2023-11-01T07:23:14.281Z,0.90
2023-11-01T07:25:16.003Z,1.30
2023-11-01T07:27:17.444Z,1.00
2023-11-01T07:29:19.173Z,0.98
2023-11-01T07:31:20.767Z,1.30
2023-11-01T07:33:22.436Z,1.20
2023-11-01T07:35:23.908Z,1.48
2023-11-01T07:37:28.150Z,0.88
2023-11-01T07:39:29.699Z,1.17
2023-11-01T07:41:31.360Z,1.25
2023-11-01T07:43:32.841Z,1.35
2023-11-01T07:45:34.343Z,1.23
2023-11-01T07:47:37.192Z,1.42
2023-11-01T07:49:38.801Z,1.30
2023-11-01T07:51:40.233Z,1.10
2023-11-01T07:53:41.778Z,0.90
2023-11-01T07:55:43.296Z,1.13
2023-11-01T07:57:44.713Z,1.00
2023-11-01T07:59:46.579Z,1.05
2023-11-01T08:01:48.066Z,1.00
2023-11-01T08:03:51.227Z,1.20
2023-11-01T08:05:53.158Z,1.05
2023-11-01T08:07:54.641Z,0.98
2023-11-01T08:09:56.066Z,1.10
2023-11-01T08:11:57.641Z,1.13
2023-11-01T08:13:59.096Z,0.93
2023-11-01T08:16:00.578Z,1.13
2023-11-01T08:18:05.023Z,0.98
2023-11-01T08:20:08.056Z,1.20
2023-11-01T08:22:13.299Z,0.93
2023-11-01T08:24:14.750Z,1.05
2023-11-01T08:26:17.784Z,1.00
2023-11-01T08:28:19.732Z,1.20
2023-11-01T08:30:21.319Z,0.90
2023-11-01T08:32:22.801Z,1.02
2023-11-01T08:34:24.533Z,1.10
2023-11-01T08:36:25.926Z,1.08
2023-11-01T08:38:27.399Z,1.00
2023-11-01T08:40:28.890Z,0.73
2023-11-01T08:42:30.395Z,1.02
2023-11-01T08:44:31.831Z,0.90
2023-11-01T08:46:33.456Z,1.20
2023-11-01T08:48:34.978Z,1.52
2023-11-01T08:50:36.510Z,1.20
2023-11-01T08:52:38.432Z,1.10
2023-11-01T08:54:41.889Z,1.00
2023-11-01T08:56:43.666Z,0.90
2023-11-01T08:58:45.126Z,1.02
2023-11-01T09:00:48.552Z,1.40
2023-11-01T09:02:50.450Z,0.98
2023-11-01T09:04:52.068Z,1.02
2023-11-01T09:06:53.492Z,1.08
2023-11-01T09:08:54.959Z,1.02
2023-11-01T09:10:57.607Z,1.00
2023-11-01T09:12:59.075Z,1.05
2023-11-01T09:15:00.653Z,1.08
2023-11-01T09:17:02.169Z,1.00
2023-11-01T09:19:03.670Z,1.35
2023-11-01T09:21:05.370Z,1.10
2023-11-01T09:23:06.826Z,1.25
2023-11-01T09:25:09.174Z,1.02
2023-11-01T09:27:10.732Z,1.15
2023-11-01T09:29:12.275Z,0.98
2023-11-01T09:31:13.751Z,1.13
2023-11-01T09:33:15.298Z,0.80
2023-11-01T09:35:16.978Z,1.10
2023-11-01T09:37:18.451Z,0.90
2023-11-01T09:39:20.456Z,1.33
2023-11-01T09:41:29.067Z,2.38
2023-11-01T09:43:32.277Z,1.50
2023-11-01T09:45:34.248Z,2.55
2023-11-01T09:47:35.750Z,3.22
2023-11-01T09:49:37.753Z,9.40
2023-11-01T09:51:39.323Z,1.60
2023-11-01T09:53:40.949Z,1.48
2023-11-01T09:55:42.440Z,1.20
2023-11-01T09:57:45.668Z,1.90
2023-11-01T09:59:48.079Z,1.90
2023-11-01T10:01:49.595Z,1.50
2023-11-01T10:03:51.083Z,1.42
2023-11-01T10:05:52.572Z,1.20
2023-11-01T10:07:54.011Z,1.52
2023-11-01T10:09:55.855Z,1.05
2023-11-01T10:12:01.016Z,1.33
2023-11-01T10:14:02.684Z,0.85
2023-11-01T10:16:05.414Z,1.08
2023-11-01T10:18:06.979Z,1.20
2023-11-01T10:20:22.434Z,0.95
2023-11-01T10:22:24.531Z,1.00
2023-11-01T10:24:29.244Z,1.00
2023-11-01T10:26:31.682Z,1.40
2023-11-01T10:28:42.908Z,1.17
2023-11-01T10:30:47.135Z,0.82
2023-11-01T10:32:59.734Z,1.00
2023-11-01T10:35:11.565Z,1.00
2023-11-01T10:39:41.237Z,1.23
2023-11-01T10:41:42.859Z,1.00
2023-11-01T10:43:44.401Z,1.08
2023-11-01T10:45:50.500Z,0.88
2023-11-01T10:47:53.602Z,0.90
2023-11-01T10:49:57.002Z,1.02
2023-11-01T10:52:00.502Z,1.10
2023-11-01T10:54:06.285Z,1.10
2023-11-01T10:56:08.603Z,1.13
2023-11-01T10:58:16.674Z,1.02
2023-11-01T11:00:38.805Z,1.00
2023-11-01T11:03:15.615Z,0.90
2023-11-01T11:05:21.920Z,0.80
2023-11-01T11:07:44.934Z,0.90
2023-11-01T11:09:46.517Z,0.80
2023-11-01T11:12:14.265Z,1.05
2023-11-01T11:14:54.533Z,1.23
2023-11-01T11:17:09.059Z,1.00
2023-11-01T11:19:11.359Z,1.17
2023-11-01T11:21:56.430Z,0.73
2023-11-01T11:23:58.516Z,0.93
2023-11-01T11:26:01.595Z,1.33
2023-11-01T11:28:04.045Z,0.82
2023-11-01T11:30:08.649Z,0.93
2023-11-01T11:32:17.476Z,1.10
2023-11-01T11:34:20.840Z,1.00
2023-11-01T11:36:26.872Z,0.80
2023-11-01T11:38:31.349Z,0.88
2023-11-01T11:40:35.203Z,0.95
2023-11-01T11:42:42.760Z,0.90
2023-11-01T11:45:01.481Z,1.27
2023-11-01T11:47:29.524Z,1.17
2023-11-01T11:49:38.606Z,1.08
2023-11-01T11:52:12.817Z,1.10
2023-11-01T11:54:17.783Z,1.10
2023-11-01T11:56:22.755Z,0.95
2023-11-01T11:58:24.800Z,1.13
2023-11-01T12:00:26.255Z,1.60
2023-11-01T12:02:27.688Z,1.25
2023-11-01T12:04:31.021Z,1.05
2023-11-01T12:06:45.190Z,1.27
2023-11-01T12:08:46.753Z,1.30
2023-11-01T12:10:51.096Z,0.80
2023-11-01T12:12:55.629Z,1.20
2023-11-01T12:15:01.270Z,0.85
2023-11-01T12:17:03.759Z,0.82
2023-11-01T12:19:17.837Z,0.90
2023-11-01T12:21:19.284Z,1.10
2023-11-01T12:23:20.798Z,0.98
2023-11-01T12:25:25.317Z,1.10
2023-11-01T12:27:31.381Z,0.93
2023-11-01T12:29:46.912Z,1.42
2023-11-01T12:32:01.970Z,1.17
2023-11-01T12:34:11.156Z,1.30
2023-11-01T12:36:17.365Z,0.90
2023-11-01T12:38:18.844Z,1.27
2023-11-01T12:40:21.968Z,0.90
2023-11-01T12:42:29.136Z,1.00
2023-11-01T12:44:30.837Z,1.10
2023-11-01T12:46:32.404Z,1.40
2023-11-01T12:48:33.936Z,1.20
2023-11-01T12:50:36.636Z,1.13
2023-11-01T12:52:40.080Z,1.00
2023-11-01T12:54:45.958Z,1.20
2023-11-01T12:56:47.485Z,1.38
2023-11-01T12:58:48.953Z,1.13
2023-11-01T13:00:50.423Z,1.27
2023-11-01T13:02:53.191Z,1.13
2023-11-01T13:04:54.713Z,1.10
2023-11-01T13:06:56.784Z,0.88
2023-11-01T13:08:58.267Z,1.02
2023-11-01T13:11:00.573Z,1.20
2023-11-01T13:13:04.344Z,1.00
2023-11-01T13:15:08.123Z,1.00
2023-11-01T13:17:09.660Z,1.05
2023-11-01T13:19:11.454Z,1.10
2023-11-01T13:21:12.874Z,1.20
2023-11-01T13:23:14.343Z,1.27
2023-11-01T13:25:15.941Z,0.88
2023-11-01T13:27:18.052Z,1.23
2023-11-01T13:29:19.488Z,1.30
2023-11-01T13:31:20.969Z,1.20
2023-11-01T13:33:22.560Z,1.10
2023-11-01T13:35:24.065Z,1.27
2023-11-01T13:37:25.568Z,2.10
2023-11-01T13:39:26.989Z,1.10
2023-11-01T13:41:28.481Z,0.88
2023-11-01T13:43:30.332Z,1.25
2023-11-01T13:45:32.807Z,1.00
2023-11-01T13:47:34.591Z,1.50
2023-11-01T13:49:39.931Z,1.88
2023-11-01T13:51:42.112Z,1.00
2023-11-01T13:53:43.565Z,1.40
2023-11-01T13:55:50.338Z,1.05
2023-11-01T13:57:51.846Z,0.88
2023-11-01T13:59:53.301Z,1.27
2023-11-01T14:01:57.854Z,1.33
2023-11-01T14:04:00.373Z,1.35
2023-11-01T14:06:02.024Z,1.23
2023-11-01T14:08:05.218Z,1.25
2023-11-01T14:10:07.096Z,1.10
2023-11-01T14:12:08.595Z,1.30
2023-11-01T14:14:10.081Z,1.48
2023-11-01T14:16:11.934Z,1.40
2023-11-01T14:18:20.142Z,1.30
2023-11-01T14:20:21.655Z,1.40
2023-11-01T14:22:23.541Z,1.33
2023-11-01T14:24:25.084Z,1.70
2023-11-01T14:26:26.583Z,1.58
2023-11-01T14:28:28.893Z,1.48
2023-11-01T14:30:30.411Z,1.33
2023-11-01T14:32:32.842Z,1.60
2023-11-01T14:34:34.396Z,1.90
2023-11-01T14:36:36.023Z,1.48
2023-11-01T14:38:37.527Z,1.35
2023-11-01T14:40:39.077Z,1.83
2023-11-01T14:42:40.599Z,1.02
2023-11-01T14:44:42.623Z,1.30
2023-11-01T14:46:44.532Z,1.33
2023-11-01T14:48:46.026Z,1.40
2023-11-01T14:50:47.764Z,1.65
2023-11-01T14:52:49.286Z,1.27
2023-11-01T14:54:50.726Z,1.58
2023-11-01T14:56:52.484Z,1.02
2023-11-01T14:58:55.353Z,1.45
2023-11-01T15:00:58.141Z,1.73
2023-11-01T15:02:59.790Z,1.40
2023-11-01T15:05:02.192Z,1.20
2023-11-01T15:07:03.765Z,1.50
2023-11-01T15:09:05.897Z,1.50
2023-11-01T15:11:08.400Z,1.40
2023-11-01T15:13:09.881Z,1.88
2023-11-01T15:15:11.450Z,1.10
2023-11-01T15:17:12.977Z,1.20
2023-11-01T15:19:14.458Z,1.13
2023-11-01T15:21:15.938Z,1.55
2023-11-01T15:23:17.394Z,1.25
2023-11-01T15:25:18.920Z,1.20
2023-11-01T15:27:20.818Z,0.98
2023-11-01T15:29:22.320Z,1.17
2023-11-01T15:31:23.802Z,1.20
2023-11-01T15:33:25.998Z,1.02
2023-11-01T15:35:27.631Z,1.20
2023-11-01T15:37:29.218Z,1.20
2023-11-01T15:39:30.813Z,1.00
2023-11-01T15:41:32.571Z,1.00
2023-11-01T15:43:34.025Z,1.05
2023-11-01T15:45:35.461Z,0.95
2023-11-01T15:47:36.947Z,0.82
2023-11-01T15:49:38.529Z,1.00
2023-11-01T15:51:39.992Z,1.02
2023-11-01T15:53:41.599Z,1.73
2023-11-01T15:55:43.155Z,0.70
2023-11-01T15:57:44.855Z,1.00
2023-11-01T15:59:46.572Z,0.80
2023-11-01T16:01:52.000Z,1.00
2023-11-01T16:03:53.724Z,1.00
2023-11-01T16:05:55.313Z,1.10
2023-11-01T16:07:56.833Z,1.02
2023-11-01T16:09:58.291Z,1.00
2023-11-01T16:11:59.769Z,0.85
2023-11-01T16:14:04.765Z,1.20
2023-11-01T16:16:06.641Z,0.85
2023-11-01T16:18:08.213Z,1.70
2023-11-01T16:20:10.291Z,1.95
2023-11-01T16:22:11.823Z,1.30
2023-11-01T16:24:13.737Z,1.75
2023-11-01T16:26:15.877Z,1.33
2023-11-01T16:28:17.415Z,1.40
2023-11-01T16:30:19.122Z,1.42
2023-11-01T16:32:20.590Z,1.42
2023-11-01T16:34:22.031Z,1.25
2023-11-01T16:36:23.647Z,0.93
2023-11-01T16:38:26.427Z,1.10
2023-11-01T16:40:28.201Z,1.20
2023-11-01T16:42:29.746Z,1.30
2023-11-01T16:44:31.357Z,1.40
2023-11-01T16:46:39.648Z,1.00
2023-11-01T16:48:41.149Z,1.02
2023-11-01T16:50:42.684Z,1.13
2023-11-01T16:52:44.331Z,1.25
2023-11-01T16:54:46.283Z,1.85
2023-11-01T16:56:47.757Z,1.63
2023-11-01T16:58:49.324Z,1.33
2023-11-01T17:00:50.856Z,1.20
2023-11-01T17:02:52.542Z,1.20
2023-11-01T17:04:54.110Z,1.27
2023-11-01T17:06:55.695Z,1.67
2023-11-01T17:08:57.218Z,0.90
2023-11-01T17:10:58.784Z,0.85
2023-11-01T17:13:00.255Z,2.60
2023-11-01T17:15:02.004Z,1.00
2023-11-01T17:17:03.766Z,0.93
2023-11-01T17:19:05.205Z,1.23
2023-11-01T17:21:07.236Z,1.52
2023-11-01T17:23:09.920Z,2.45
2023-11-01T17:25:53.515Z,6.63
2023-11-01T17:27:54.958Z,1.80
2023-11-01T17:29:56.440Z,1.92
2023-11-01T17:31:59.078Z,1.05
2023-11-01T17:34:00.648Z,0.93
2023-11-01T17:36:07.414Z,0.90
2023-11-01T17:40:23.242Z,0.98
2023-11-01T17:42:24.823Z,1.10
2023-11-01T17:44:32.665Z,1.02
2023-11-01T17:46:34.418Z,0.90
2023-11-01T17:48:35.978Z,1.70
2023-11-01T17:50:37.659Z,1.40
2023-11-01T17:52:41.278Z,0.90
2023-11-01T17:54:42.833Z,1.25
2023-11-01T17:56:44.469Z,1.17
2023-11-01T17:58:58.782Z,1.20
2023-11-01T18:01:00.680Z,1.17
2023-11-01T18:03:02.472Z,0.93
2023-11-01T18:05:04.313Z,1.25
2023-11-01T18:07:05.887Z,1.55
2023-11-01T18:09:16.864Z,1.08
2023-11-01T18:11:19.874Z,1.27
2023-11-01T18:13:32.345Z,1.10
2023-11-01T18:15:34.890Z,1.42
2023-11-01T18:17:36.523Z,1.10
2023-11-01T18:19:42.757Z,1.23
2023-11-01T18:21:45.581Z,1.10
2023-11-01T18:23:54.185Z,1.10
2023-11-01T18:26:10.718Z,1.20
2023-11-01T18:28:12.168Z,1.08
2023-11-01T18:30:18.505Z,1.23
2023-11-01T18:32:20.110Z,1.23
2023-11-01T18:34:24.920Z,1.30
2023-11-01T18:36:28.182Z,1.20
2023-11-01T18:38:54.139Z,1.20
2023-11-01T18:40:55.725Z,1.20
2023-11-01T18:42:59.311Z,1.20
2023-11-01T18:45:00.806Z,1.42
2023-11-01T18:47:02.746Z,1.25
2023-11-01T18:49:05.758Z,2.10
2023-11-01T18:51:31.014Z,2.13
2023-11-01T18:53:36.661Z,1.25
2023-11-01T18:55:38.295Z,1.55
2023-11-01T18:57:40.229Z,1.02
2023-11-01T18:59:41.858Z,1.00
2023-11-01T19:01:43.306Z,1.10
2023-11-01T19:03:44.881Z,1.40
2023-11-01T19:05:46.916Z,1.17
2023-11-01T19:07:49.224Z,1.38
2023-11-01T19:09:51.401Z,1.48
2023-11-01T19:11:52.981Z,1.63
2023-11-01T19:13:58.415Z,2.63
2023-11-01T19:16:12.857Z,1.50
2023-11-01T19:18:19.104Z,1.23
2023-11-01T19:20:20.745Z,1.10
2023-11-01T19:22:23.016Z,1.20
2023-11-01T19:24:24.524Z,1.10
2023-11-01T19:26:29.677Z,1.20
2023-11-01T19:28:32.974Z,1.00
2023-11-01T19:30:34.788Z,1.30
2023-11-01T19:32:36.381Z,0.90
2023-11-01T19:34:38.223Z,1.08
2023-11-01T19:36:39.830Z,0.88
2023-11-01T19:38:41.561Z,1.13
2023-11-01T19:40:43.091Z,1.42
2023-11-01T19:42:44.680Z,1.08
2023-11-01T19:44:46.282Z,0.90
2023-11-01T19:46:47.810Z,1.20
2023-11-01T19:48:50.557Z,1.02
2023-11-01T19:50:52.352Z,1.02
2023-11-01T19:52:54.662Z,1.20
2023-11-01T19:54:56.189Z,1.05
2023-11-01T19:56:58.190Z,0.90
2023-11-01T19:59:00.288Z,0.90
2023-11-01T20:01:01.833Z,1.00
2023-11-01T20:03:06.303Z,0.93
2023-11-01T20:05:11.205Z,1.23
2023-11-01T20:07:12.760Z,1.10
2023-11-01T20:09:14.269Z,1.17
2023-11-01T20:11:15.767Z,1.10
2023-11-01T20:13:17.693Z,1.10
2023-11-01T20:15:22.243Z,1.10
2023-11-01T20:17:24.155Z,0.98
2023-11-01T20:19:25.596Z,0.90
2023-11-01T20:21:27.252Z,0.95
2023-11-01T20:23:28.744Z,1.13
2023-11-01T20:25:30.517Z,0.85
2023-11-01T20:27:32.557Z,0.95
2023-11-01T20:29:34.015Z,0.90
2023-11-01T20:31:35.658Z,0.77
2023-11-01T20:33:37.235Z,0.95
2023-11-01T20:35:39.901Z,0.80
2023-11-01T20:37:42.399Z,1.00
2023-11-01T20:39:44.842Z,1.50
2023-11-01T20:41:46.341Z,1.85
2023-11-01T20:43:47.852Z,2.00
2023-11-01T20:45:49.305Z,1.25
2023-11-01T20:47:51.103Z,0.93
2023-11-01T20:49:52.664Z,0.82
2023-11-01T20:51:54.235Z,1.10
2023-11-01T20:53:56.281Z,0.75
2023-11-01T20:55:57.813Z,0.85
2023-11-01T20:57:59.282Z,1.10
2023-11-01T21:00:01.365Z,0.70
2023-11-01T21:02:02.995Z,0.70
2023-11-01T21:04:06.340Z,0.95
2023-11-01T21:06:08.565Z,0.80
2023-11-01T21:08:10.119Z,0.60
2023-11-01T21:10:11.617Z,0.90
2023-11-01T21:12:13.246Z,0.90
2023-11-01T21:14:14.786Z,0.70
2023-11-01T21:16:16.295Z,1.00
2023-11-01T21:18:17.862Z,0.80
2023-11-01T21:20:19.529Z,0.85
2023-11-01T21:22:22.021Z,0.90
2023-11-01T21:24:23.528Z,1.02
2023-11-01T21:26:25.040Z,0.70
2023-11-01T21:28:26.502Z,0.90
2023-11-01T21:30:28.093Z,0.70
2023-11-01T21:32:32.132Z,0.75
2023-11-01T21:34:33.664Z,0.90
2023-11-01T21:36:35.143Z,0.95
2023-11-01T21:38:36.626Z,0.88
2023-11-01T21:40:38.282Z,1.10
2023-11-01T21:42:39.753Z,0.82
2023-11-01T21:44:42.873Z,0.80
2023-11-01T21:46:44.479Z,0.60
2023-11-01T21:48:46.076Z,0.70
2023-11-01T21:50:52.285Z,0.52
2023-11-01T21:52:54.410Z,0.88
2023-11-01T21:54:56.695Z,1.27
2023-11-01T21:56:58.538Z,0.68
2023-11-01T21:59:11.574Z,1.00
2023-11-01T22:01:20.274Z,0.90
2023-11-01T22:03:43.170Z,1.45
2023-11-01T22:05:45.289Z,0.77
2023-11-01T22:07:48.065Z,0.80
2023-11-01T22:09:52.703Z,0.90
2023-11-01T22:11:54.556Z,0.90
2023-11-01T22:13:58.179Z,0.90
2023-11-01T22:15:59.618Z,0.70
2023-11-01T22:18:01.166Z,0.85
2023-11-01T22:20:07.958Z,0.90
2023-11-01T22:22:21.424Z,0.73
2023-11-01T22:24:22.909Z,0.80
2023-11-01T22:26:24.646Z,0.75
2023-11-01T22:28:28.336Z,0.68
2023-11-01T22:30:33.428Z,1.05
2023-11-01T22:32:34.921Z,0.70
2023-11-01T22:34:40.732Z,0.80
2023-11-01T22:36:50.776Z,0.85
2023-11-01T22:38:52.270Z,0.93
2023-11-01T22:40:55.925Z,0.77
2023-11-01T22:42:57.364Z,0.82
2023-11-01T22:45:03.074Z,0.70
2023-11-01T22:47:05.362Z,0.98
2023-11-01T22:49:06.930Z,0.80
2023-11-01T22:51:08.612Z,0.60
2023-11-01T22:53:10.075Z,0.90
2023-11-01T22:55:11.593Z,0.85
2023-11-01T22:57:13.226Z,1.15
2023-11-01T22:59:15.545Z,1.00
2023-11-01T23:01:17.648Z,1.30
2023-11-01T23:03:19.367Z,0.70
2023-11-01T23:05:21.017Z,0.80
2023-11-01T23:07:22.584Z,0.98
2023-11-01T23:09:24.084Z,0.68
2023-11-01T23:11:25.648Z,0.88
2023-11-01T23:13:27.089Z,1.00
2023-11-01T23:15:28.670Z,0.80
2023-11-01T23:17:30.295Z,0.52
2023-11-01T23:19:31.845Z,0.55
2023-11-01T23:21:33.377Z,0.70
2023-11-01T23:23:34.818Z,0.70
2023-11-01T23:25:36.328Z,0.60
2023-11-01T23:27:37.857Z,0.85
2023-11-01T23:29:39.811Z,0.60
2023-11-01T23:31:45.935Z,0.70
2023-11-01T23:33:47.553Z,0.95
2023-11-01T23:35:49.516Z,0.57
2023-11-01T23:37:51.355Z,0.73
2023-11-01T23:39:52.823Z,0.80
2023-11-01T23:41:54.771Z,0.60
2023-11-01T23:44:00.570Z,0.90
2023-11-01T23:46:08.380Z,0.77
2023-11-01T23:48:10.336Z,1.00
2023-11-01T23:50:29.418Z,1.00
2023-11-01T23:52:31.619Z,0.75
2023-11-01T23:54:33.354Z,0.70
2023-11-01T23:56:38.877Z,0.60
2023-11-01T23:58:45.158Z,1.05
